Time;durP1;ratioP1;P1;durP2;ratioP2;P2;SDS_P1;SDS_P2;PMS_P1;PMS_P2;Temp;Humidity;BMP_temperature;BMP_pressure;BME280_temperature;BME280_humidity;BME280_pressure;Samples;Min_cycle;Max_cycle;Signal;HPM_P1;HPM_P2
2023/10/07 00:00:25;;;;;;;10.60;3.88;;;12.00;99.90;;;;;;5036409;28;20029;-68
2023/10/07 00:02:51;;;;;;;11.18;4.85;;;12.00;99.90;;;;;;5037343;28;20037;-68
2023/10/07 00:05:16;;;;;;;10.15;4.40;;;11.90;99.90;;;;;;5037492;28;20026;-68
2023/10/07 00:07:46;;;;;;;19.38;4.80;;;11.90;99.90;;;;;;5037824;28;20025;-68
2023/10/07 00:10:16;;;;;;;12.45;4.35;;;12.00;99.90;;;;;;5036173;28;20088;-68
2023/10/07 00:12:42;;;;;;;10.73;4.32;;;12.00;99.90;;;;;;5037056;28;20075;-70
2023/10/07 00:15:11;;;;;;;11.40;4.30;;;12.10;99.90;;;;;;5037325;28;20021;-70
2023/10/07 00:17:42;;;;;;;14.65;4.93;;;12.10;99.90;;;;;;5036850;28;20125;-70
2023/10/07 00:20:12;;;;;;;11.73;4.80;;;12.10;99.90;;;;;;5037089;28;20048;-68
2023/10/07 00:22:41;;;;;;;9.38;4.00;;;12.00;99.90;;;;;;5036915;28;20108;-67
2023/10/07 00:25:08;;;;;;;14.18;4.93;;;12.00;99.90;;;;;;5037194;28;20097;-67
2023/10/07 00:27:40;;;;;;;12.15;4.82;;;12.00;99.90;;;;;;5037090;28;20033;-67
2023/10/07 00:30:15;;;;;;;8.48;4.88;;;11.90;99.90;;;;;;5036820;28;20104;-67
2023/10/07 00:32:41;;;;;;;11.23;4.82;;;11.80;99.90;;;;;;5037124;28;20031;-67
2023/10/07 00:35:07;;;;;;;10.77;4.35;;;11.90;99.90;;;;;;5036322;28;20025;-67
2023/10/07 00:37:37;;;;;;;8.65;4.32;;;11.90;99.90;;;;;;5036722;28;20028;-68
2023/10/07 00:40:14;;;;;;;12.80;4.47;;;11.90;99.90;;;;;;5036672;28;20029;-67
2023/10/07 00:42:47;;;;;;;8.45;4.38;;;11.90;99.90;;;;;;5036702;28;20024;-67
2023/10/07 00:45:16;;;;;;;8.73;4.55;;;11.80;99.90;;;;;;5036927;28;20026;-68
2023/10/07 00:47:43;;;;;;;7.40;4.05;;;11.70;99.90;;;;;;5035643;28;20018;-67
2023/10/07 00:50:10;;;;;;;15.65;4.70;;;11.60;99.90;;;;;;5036555;28;20026;-68
2023/10/07 00:52:48;;;;;;;9.68;4.05;;;11.40;99.90;;;;;;5035651;28;20029;-68
2023/10/07 00:55:18;;;;;;;11.90;5.13;;;11.50;99.90;;;;;;5036025;28;20053;-67
2023/10/07 00:57:50;;;;;;;13.05;5.35;;;11.60;99.90;;;;;;5037691;28;20025;-68
2023/10/07 01:00:40;;;;;;;14.98;6.13;;;11.50;99.90;;;;;;5039625;28;20021;-68
2023/10/07 01:03:17;;;;;;;12.38;5.93;;;11.50;99.90;;;;;;5040523;28;20032;-68
2023/10/07 01:08:27;;;;;;;10.88;5.13;;;11.60;99.90;;;;;;5040426;28;20029;-68
2023/10/07 01:11:07;;;;;;;11.40;4.53;;;11.50;99.90;;;;;;5040421;28;20083;-67
2023/10/07 01:13:35;;;;;;;9.93;4.95;;;11.50;99.90;;;;;;5040668;28;20029;-68
2023/10/07 01:16:07;;;;;;;11.35;4.60;;;11.60;99.90;;;;;;5040426;28;20034;-67
2023/10/07 01:18:39;;;;;;;11.60;5.30;;;11.60;99.90;;;;;;5040048;28;20029;-67
2023/10/07 01:21:11;;;;;;;9.20;4.50;;;11.50;99.90;;;;;;5040408;28;20053;-67
2023/10/07 01:23:39;;;;;;;10.18;5.25;;;11.40;99.90;;;;;;5040408;28;20103;-68
2023/10/07 01:26:14;;;;;;;10.48;4.88;;;11.40;99.90;;;;;;5040214;28;20105;-67
2023/10/07 01:28:43;;;;;;;12.07;5.05;;;11.40;99.90;;;;;;5039522;28;20028;-70
2023/10/07 01:31:12;;;;;;;11.38;4.55;;;11.40;99.90;;;;;;5040047;28;20100;-70
2023/10/07 01:33:46;;;;;;;14.57;4.50;;;11.30;99.90;;;;;;5040230;28;20029;-70
2023/10/07 01:36:25;;;;;;;12.85;4.78;;;11.30;99.90;;;;;;5040286;28;20025;-70
2023/10/07 01:38:52;;;;;;;10.27;5.07;;;11.30;99.90;;;;;;5038878;28;20036;-70
2023/10/07 01:41:27;;;;;;;14.98;5.72;;;11.30;99.90;;;;;;5039982;28;20033;-70
2023/10/07 01:44:04;;;;;;;10.23;5.75;;;11.30;99.90;;;;;;5039020;28;20041;-70
2023/10/07 01:46:32;;;;;;;9.20;5.22;;;11.30;99.90;;;;;;5039324;28;20037;-70
2023/10/07 01:49:01;;;;;;;10.27;4.72;;;11.40;99.90;;;;;;5039775;28;20025;-70
2023/10/07 01:51:28;;;;;;;10.43;5.30;;;11.40;99.90;;;;;;5039740;28;20018;-70
2023/10/07 01:53:56;;;;;;;9.82;4.30;;;11.30;99.90;;;;;;5039697;28;20030;-70
2023/10/07 01:56:22;;;;;;;9.90;5.03;;;11.20;99.90;;;;;;5039618;28;20087;-70
2023/10/07 01:58:48;;;;;;;12.02;4.95;;;11.20;99.90;;;;;;5038706;28;20029;-70
2023/10/07 02:01:17;;;;;;;9.55;5.38;;;11.20;99.90;;;;;;5039135;28;20028;-71
2023/10/07 02:03:45;;;;;;;9.55;5.03;;;11.10;99.90;;;;;;5038739;28;20017;-70
2023/10/07 02:06:11;;;;;;;9.02;4.68;;;11.10;99.90;;;;;;5039644;28;20024;-70
2023/10/07 02:08:37;;;;;;;13.18;6.05;;;11.00;99.90;;;;;;5038193;28;20029;-70
2023/10/07 02:11:05;;;;;;;8.90;4.70;;;11.00;99.90;;;;;;5040052;28;20075;-70
2023/10/07 02:13:31;;;;;;;10.48;4.60;;;11.00;99.90;;;;;;5039442;28;20025;-70
2023/10/07 02:15:57;;;;;;;14.02;5.03;;;11.00;99.90;;;;;;5038829;28;20111;-70
2023/10/07 02:18:26;;;;;;;11.77;4.57;;;11.00;99.90;;;;;;5057185;22;20046;-66
2023/10/07 02:20:53;;;;;;;10.02;5.43;;;10.90;99.90;;;;;;5019521;28;20025;-66
2023/10/07 02:23:39;;;;;;;11.77;5.00;;;10.80;99.90;;;;;;5019408;28;20017;-66
2023/10/07 02:26:06;;;;;;;8.55;4.72;;;10.80;99.90;;;;;;5019640;28;20111;-66
2023/10/07 02:28:35;;;;;;;11.63;4.85;;;10.70;99.90;;;;;;5019213;28;20025;-66
2023/10/07 02:31:08;;;;;;;13.65;6.72;;;10.80;99.90;;;;;;5019104;28;20062;-66
2023/10/07 02:33:44;;;;;;;11.98;5.22;;;10.70;99.90;;;;;;5019164;28;20072;-66
2023/10/07 02:36:13;;;;;;;12.88;5.88;;;10.80;99.90;;;;;;5019093;28;20018;-66
2023/10/07 02:38:41;;;;;;;13.48;6.03;;;10.90;99.90;;;;;;5018023;28;20113;-66
2023/10/07 02:41:16;;;;;;;9.75;5.32;;;10.90;99.90;;;;;;5018653;28;20025;-66
2023/10/07 02:43:43;;;;;;;15.55;5.55;;;10.90;99.90;;;;;;5018964;28;20052;-66
2023/10/07 02:46:22;;;;;;;7.28;4.30;;;10.80;99.90;;;;;;5019105;28;20037;-66
2023/10/07 02:48:48;;;;;;;12.07;4.68;;;10.70;99.90;;;;;;5019026;28;20092;-66
2023/10/07 02:51:13;;;;;;;6.68;3.95;;;10.70;99.90;;;;;;5018178;28;20026;-66
2023/10/07 02:53:39;;;;;;;12.27;4.10;;;10.80;99.90;;;;;;5018534;28;20026;-66
2023/10/07 02:56:17;;;;;;;7.32;4.05;;;10.70;99.90;;;;;;5017958;28;20098;-66
2023/10/07 02:59:00;;;;;;;10.32;4.43;;;10.70;99.90;;;;;;5018638;28;20026;-66
2023/10/07 03:01:28;;;;;;;9.68;3.97;;;10.70;99.90;;;;;;5018978;28;20017;-66
2023/10/07 03:03:55;;;;;;;11.40;4.90;;;10.60;99.90;;;;;;5017700;28;20105;-66
2023/10/07 03:06:26;;;;;;;7.80;4.18;;;10.50;99.90;;;;;;5018640;28;20018;-66
2023/10/07 03:09:00;;;;;;;13.23;6.20;;;10.40;99.90;;;;;;5019308;28;20026;-66
2023/10/07 03:11:39;;;;;;;11.05;4.55;;;10.30;99.90;;;;;;5017613;28;20021;-66
2023/10/07 03:14:06;;;;;;;8.63;4.38;;;10.20;99.90;;;;;;5018402;28;20037;-66
2023/10/07 03:16:45;;;;;;;13.32;4.95;;;10.30;99.90;;;;;;5018453;28;20030;-66
2023/10/07 03:19:20;;;;;;;10.73;5.75;;;10.30;99.90;;;;;;5017315;28;20103;-66
2023/10/07 03:24:28;;;;;;;14.00;5.25;;;10.30;99.90;;;;;;5018289;28;20014;-66
2023/10/07 03:27:05;;;;;;;7.78;4.05;;;10.30;99.90;;;;;;5018463;28;20026;-66
2023/10/07 03:29:37;;;;;;;9.85;4.80;;;10.60;99.90;;;;;;5017971;28;20025;-66
2023/10/07 03:32:24;;;;;;;8.45;4.10;;;10.80;99.90;;;;;;5017176;28;20059;-66
2023/10/07 03:34:49;;;;;;;7.50;4.35;;;10.80;99.90;;;;;;5017900;28;20062;-66
2023/10/07 03:37:15;;;;;;;12.00;4.40;;;10.70;99.90;;;;;;5017393;28;20054;-66
2023/10/07 03:40:04;;;;;;;9.05;4.82;;;10.80;99.90;;;;;;5017939;28;20037;-66
2023/10/07 03:42:30;;;;;;;10.90;4.85;;;10.70;99.90;;;;;;5018193;28;20045;-66
2023/10/07 03:44:56;;;;;;;12.45;5.03;;;10.70;99.90;;;;;;5017879;28;20018;-66
2023/10/07 03:47:24;;;;;;;9.98;4.57;;;10.70;99.90;;;;;;5018369;28;20014;-66
2023/10/07 03:49:52;;;;;;;11.27;4.25;;;10.80;99.90;;;;;;5017780;28;20022;-66
2023/10/07 03:52:20;;;;;;;9.52;4.65;;;10.80;99.90;;;;;;5017957;28;20030;-66
2023/10/07 03:54:47;;;;;;;9.15;4.65;;;10.80;99.90;;;;;;5017690;28;20028;-66
2023/10/07 03:57:15;;;;;;;8.27;4.32;;;10.80;99.90;;;;;;5017886;28;20109;-66
2023/10/07 03:59:41;;;;;;;9.55;4.28;;;10.90;99.90;;;;;;5016671;28;20048;-66
2023/10/07 04:05:03;;;;;;;10.38;5.07;;;10.90;99.90;;;;;;5018068;28;20049;-65
2023/10/07 04:07:30;;;;;;;16.05;6.40;;;10.90;99.90;;;;;;5017594;28;20022;-66
2023/10/07 04:10:11;;;;;;;11.57;4.95;;;10.90;99.90;;;;;;5016473;28;20113;-66
2023/10/07 04:12:39;;;;;;;14.43;5.10;;;11.00;99.90;;;;;;5017462;28;20028;-66
2023/10/07 04:15:09;;;;;;;14.43;5.75;;;11.10;99.90;;;;;;5017073;28;20040;-66
2023/10/07 04:17:38;;;;;;;19.43;6.50;;;11.10;99.90;;;;;;5017434;28;20033;-66
2023/10/07 04:20:21;;;;;;;12.38;5.55;;;11.10;99.90;;;;;;5016338;28;20057;-66
2023/10/07 04:22:57;;;;;;;10.43;4.90;;;11.10;99.90;;;;;;5016293;28;20026;-66
2023/10/07 04:25:24;;;;;;;17.08;5.93;;;11.00;99.90;;;;;;5017260;28;20022;-66
2023/10/07 04:27:53;;;;;;;15.20;5.65;;;11.00;99.90;;;;;;5017033;28;20021;-66
2023/10/07 04:30:27;;;;;;;16.10;6.97;;;11.00;99.90;;;;;;5017374;28;20072;-66
2023/10/07 04:33:00;;;;;;;15.32;6.43;;;11.10;99.90;;;;;;5017276;28;20033;-66
2023/10/07 04:35:32;;;;;;;14.30;6.05;;;11.10;99.90;;;;;;5017217;28;20022;-66
2023/10/07 04:41:30;;;;;;;13.35;6.07;;;11.30;99.90;;;;;;5017366;28;20121;-66
2023/10/07 04:43:50;;;;;;;17.02;6.43;;;11.30;99.90;;;;;;5017112;28;20025;-66
2023/10/07 04:46:28;;;;;;;11.48;6.20;;;11.30;99.90;;;;;;5016985;28;20025;-66
2023/10/07 04:48:55;;;;;;;13.25;6.43;;;11.30;99.90;;;;;;5015995;28;20030;-66
2023/10/07 04:54:02;;;;;;;13.48;6.85;;;11.20;99.90;;;;;;5017267;28;20034;-66
2023/10/07 04:56:32;;;;;;;15.70;7.10;;;11.20;99.90;;;;;;5016857;28;20051;-66
2023/10/07 04:59:00;;;;;;;15.30;7.25;;;11.20;99.90;;;;;;5016765;28;20022;-66
2023/10/07 05:01:33;;;;;;;15.75;6.85;;;11.10;99.90;;;;;;5016981;28;20037;-66
2023/10/07 05:04:03;;;;;;;15.50;6.85;;;11.20;99.90;;;;;;5016841;28;20029;-66
2023/10/07 05:06:34;;;;;;;14.33;6.20;;;11.30;99.90;;;;;;5016066;28;20057;-66
2023/10/07 05:09:03;;;;;;;19.15;7.03;;;11.30;99.90;;;;;;5016753;28;20269;-66
2023/10/07 05:11:29;;;;;;;17.67;7.05;;;11.30;99.90;;;;;;5016697;28;20018;-66
2023/10/07 05:13:55;;;;;;;13.32;6.28;;;11.40;99.90;;;;;;5016739;28;20109;-66
2023/10/07 05:16:22;;;;;;;16.60;6.63;;;11.40;99.90;;;;;;5016814;28;20057;-66
2023/10/07 05:18:48;;;;;;;14.50;7.20;;;11.50;99.90;;;;;;5016636;28;20083;-66
2023/10/07 05:21:19;;;;;;;17.30;7.07;;;11.50;99.90;;;;;;5016770;28;20026;-66
2023/10/07 05:23:46;;;;;;;15.45;6.80;;;11.40;99.90;;;;;;5016727;28;20044;-66
2023/10/07 05:26:17;;;;;;;21.40;7.57;;;11.40;99.90;;;;;;5016665;28;20022;-66
2023/10/07 05:28:44;;;;;;;18.20;6.82;;;11.40;99.90;;;;;;5016423;28;20022;-66
2023/10/07 05:31:11;;;;;;;12.80;7.25;;;11.40;99.90;;;;;;5016876;28;20026;-66
2023/10/07 05:33:37;;;;;;;17.17;6.95;;;11.50;99.90;;;;;;5016694;28;20109;-66
2023/10/07 05:36:13;;;;;;;17.33;6.63;;;11.60;99.90;;;;;;5015822;28;20057;-66
2023/10/07 05:38:47;;;;;;;15.23;7.43;;;11.60;99.90;;;;;;5016605;28;20053;-66
2023/10/07 05:41:15;;;;;;;18.25;6.90;;;11.60;99.90;;;;;;5016558;28;20076;-66
2023/10/07 05:43:44;;;;;;;17.98;8.57;;;11.70;99.90;;;;;;5017365;28;20033;-66
2023/10/07 05:46:11;;;;;;;10.15;5.28;;;11.60;99.90;;;;;;5019188;28;20026;-66
2023/10/07 05:48:38;;;;;;;19.73;6.97;;;11.60;99.90;;;;;;5019128;28;20041;-66
2023/10/07 05:51:08;;;;;;;19.23;8.00;;;11.70;99.90;;;;;;5019371;28;20026;-66
2023/10/07 05:53:37;;;;;;;13.75;5.85;;;11.80;99.90;;;;;;5019888;28;20130;-66
2023/10/07 05:56:07;;;;;;;15.27;6.82;;;11.90;99.90;;;;;;5018921;28;20021;-66
2023/10/07 05:58:37;;;;;;;16.90;6.40;;;11.80;99.90;;;;;;5019834;28;20029;-66
2023/10/07 06:01:03;;;;;;;18.35;6.03;;;11.80;99.90;;;;;;5019691;28;20050;-66
2023/10/07 06:03:30;;;;;;;12.50;6.50;;;11.90;99.90;;;;;;5019854;28;20014;-66
2023/10/07 06:05:59;;;;;;;17.55;7.07;;;11.80;99.90;;;;;;5019655;28;20053;-66
2023/10/07 06:08:28;;;;;;;21.08;7.28;;;11.70;99.90;;;;;;5019547;28;20072;-66
2023/10/07 06:10:56;;;;;;;13.98;6.03;;;11.60;99.90;;;;;;5018964;28;20026;-66
2023/10/07 06:13:22;;;;;;;21.05;7.20;;;11.70;99.90;;;;;;5018650;28;20056;-66
2023/10/07 06:15:49;;;;;;;12.05;5.82;;;11.80;99.90;;;;;;5018552;28;20117;-66
2023/10/07 06:18:18;;;;;;;12.80;6.60;;;11.90;99.90;;;;;;5019659;28;20018;-66
2023/10/07 06:20:51;;;;;;;16.17;6.40;;;11.90;99.90;;;;;;5019843;28;20025;-66
2023/10/07 06:23:20;;;;;;;13.57;6.15;;;11.90;99.90;;;;;;5019712;28;20022;-66
2023/10/07 06:25:50;;;;;;;18.23;6.18;;;11.90;99.90;;;;;;5019604;28;20014;-66
2023/10/07 06:28:44;;;;;;;13.55;6.40;;;12.00;99.90;;;;;;5019277;28;20109;-66
2023/10/07 06:31:13;;;;;;;15.55;6.28;;;12.00;99.90;;;;;;5019467;28;20025;-66
2023/10/07 06:33:41;;;;;;;12.63;6.10;;;12.00;99.90;;;;;;5019637;28;20014;-66
2023/10/07 06:36:07;;;;;;;22.95;6.57;;;12.20;99.90;;;;;;5019321;28;20018;-66
2023/10/07 06:38:36;;;;;;;20.30;6.88;;;12.20;99.90;;;;;;5019334;28;20060;-66
2023/10/07 06:41:13;;;;;;;13.70;5.68;;;12.30;99.90;;;;;;5019101;28;20022;-66
2023/10/07 06:43:42;;;;;;;15.25;5.68;;;12.20;99.90;;;;;;5019012;28;20114;-66
2023/10/07 06:46:11;;;;;;;14.07;5.85;;;12.30;99.90;;;;;;5018049;28;20079;-66
2023/10/07 06:48:38;;;;;;;14.32;6.40;;;12.40;99.90;;;;;;5018939;28;20124;-66
2023/10/07 06:51:06;;;;;;;13.73;5.28;;;12.50;99.90;;;;;;5018804;28;20097;-66
2023/10/07 06:53:31;;;;;;;17.90;4.93;;;12.40;99.90;;;;;;5018205;28;20033;-66
2023/10/07 06:55:58;;;;;;;14.68;5.72;;;12.60;99.90;;;;;;5017695;28;20180;-66
2023/10/07 06:58:25;;;;;;;13.82;5.57;;;12.50;99.90;;;;;;5017655;28;20121;-66
2023/10/07 07:00:56;;;;;;;15.63;5.60;;;12.50;99.90;;;;;;5018831;28;20113;-66
2023/10/07 07:03:25;;;;;;;14.23;5.53;;;12.60;99.90;;;;;;5017765;28;20029;-66
2023/10/07 07:05:52;;;;;;;10.95;5.35;;;12.60;99.90;;;;;;5019195;28;20045;-66
2023/10/07 07:08:22;;;;;;;13.27;5.18;;;12.50;99.90;;;;;;5017599;28;20022;-66
2023/10/07 07:10:55;;;;;;;14.65;5.20;;;12.70;99.90;;;;;;5018830;28;20022;-66
2023/10/07 07:13:27;;;;;;;10.57;4.88;;;12.80;99.90;;;;;;5018175;28;20022;-66
2023/10/07 07:16:06;;;;;;;12.57;4.93;;;12.90;99.90;;;;;;5018636;28;20095;-66
2023/10/07 07:18:32;;;;;;;15.00;4.90;;;12.80;99.90;;;;;;5018461;28;20042;-66
2023/10/07 07:21:00;;;;;;;9.10;4.72;;;12.80;99.90;;;;;;5017832;28;20060;-66
2023/10/07 07:23:35;;;;;;;12.93;4.47;;;13.00;99.90;;;;;;5017910;28;20100;-66
2023/10/07 07:28:30;;;;;;;19.08;5.20;;;13.10;99.90;;;;;;5018501;28;20030;-66
2023/10/07 07:30:57;;;;;;;12.68;4.47;;;13.10;99.90;;;;;;5017957;28;20022;-66
2023/10/07 07:33:28;;;;;;;8.60;3.88;;;13.00;99.90;;;;;;5017148;28;20032;-66
2023/10/07 07:35:57;;;;;;;13.43;4.60;;;13.20;99.90;;;;;;5018356;28;20080;-66
2023/10/07 07:38:29;;;;;;;9.75;4.32;;;13.30;99.90;;;;;;5018382;28;20029;-66
2023/10/07 07:41:05;;;;;;;8.95;4.15;;;13.40;99.90;;;;;;5017913;28;20052;-66
2023/10/07 07:43:33;;;;;;;10.60;4.22;;;13.50;99.90;;;;;;5017974;28;20026;-66
2023/10/07 07:46:18;;;;;;;14.43;5.18;;;13.50;99.90;;;;;;5017193;28;20026;-66
2023/10/07 07:48:52;;;;;;;12.75;4.95;;;13.50;99.90;;;;;;5018242;28;20104;-66
2023/10/07 07:51:18;;;;;;;9.18;4.43;;;13.40;99.90;;;;;;5017847;28;20026;-66
2023/10/07 07:53:44;;;;;;;13.77;5.65;;;13.40;99.90;;;;;;5017229;28;20060;-66
2023/10/07 07:56:13;;;;;;;14.57;4.60;;;13.30;99.90;;;;;;5017705;28;20060;-66
2023/10/07 07:58:48;;;;;;;19.33;5.07;;;13.40;99.90;;;;;;5017571;28;20038;-66
2023/10/07 08:01:23;;;;;;;13.13;4.82;;;13.40;99.90;;;;;;5017624;28;20026;-66
2023/10/07 08:03:49;;;;;;;12.35;4.60;;;13.40;99.90;;;;;;5017508;28;20065;-66
2023/10/07 08:06:19;;;;;;;9.68;4.35;;;13.40;99.90;;;;;;5017313;28;20030;-66
2023/10/07 08:08:47;;;;;;;16.67;4.55;;;13.40;99.90;;;;;;5016679;28;20030;-66
2023/10/07 08:11:17;;;;;;;9.68;4.03;;;13.40;99.90;;;;;;5017546;28;20026;-66
2023/10/07 08:13:45;;;;;;;13.98;4.28;;;13.50;99.90;;;;;;5016631;28;20025;-66
2023/10/07 08:16:15;;;;;;;12.20;4.60;;;13.50;99.90;;;;;;5016485;28;20033;-66
2023/10/07 08:18:41;;;;;;;13.48;4.38;;;13.60;99.90;;;;;;5017736;28;20149;-69
2023/10/07 08:21:07;;;;;;;10.85;4.63;;;13.70;99.90;;;;;;5017346;28;20108;-69
2023/10/07 08:23:36;;;;;;;10.65;3.80;;;13.80;99.90;;;;;;5017565;28;20026;-69
2023/10/07 08:26:12;;;;;;;12.10;4.13;;;13.80;99.90;;;;;;5017489;28;20022;-69
2023/10/07 08:31:27;;;;;;;8.98;3.83;;;13.90;99.90;;;;;;5017709;28;20037;-69
2023/10/07 08:36:36;;;;;;;8.73;3.92;;;14.30;99.90;;;;;;5017884;28;20022;-69
2023/10/07 08:39:06;;;;;;;11.70;4.65;;;14.40;99.90;;;;;;5016947;28;20026;-69
2023/10/07 08:41:32;;;;;;;11.32;4.55;;;14.30;99.90;;;;;;5016921;28;20033;-69
2023/10/07 08:44:16;;;;;;;9.82;3.97;;;14.10;99.90;;;;;;5017225;28;20030;-69
2023/10/07 08:46:48;;;;;;;12.45;4.68;;;14.10;99.90;;;;;;5016123;28;20028;-69
2023/10/07 08:49:24;;;;;;;14.38;4.70;;;14.10;99.90;;;;;;5017397;28;20021;-69
2023/10/07 08:51:52;;;;;;;27.90;5.25;;;14.00;99.90;;;;;;5016376;28;20053;-69
2023/10/07 08:54:19;;;;;;;12.57;4.65;;;14.00;99.90;;;;;;5016843;28;20084;-69
2023/10/07 08:56:54;;;;;;;9.93;4.45;;;14.00;99.90;;;;;;5017060;28;20097;-69
2023/10/07 08:59:25;;;;;;;11.70;4.25;;;14.10;99.90;;;;;;5015904;28;20084;-69
2023/10/07 09:02:00;;;;;;;8.90;3.90;;;14.10;99.90;;;;;;5016965;28;20072;-69
2023/10/07 09:04:29;;;;;;;11.65;4.55;;;14.50;99.90;;;;;;5016715;28;20105;-69
2023/10/07 09:06:54;;;;;;;7.50;3.00;;;14.90;99.90;;;;;;5016931;28;20026;-69
2023/10/07 09:09:39;;;;;;;8.02;3.35;;;15.00;99.90;;;;;;5016773;28;20105;-69
2023/10/07 09:12:14;;;;;;;9.07;3.58;;;15.20;99.90;;;;;;5015945;28;20025;-69
2023/10/07 09:14:52;;;;;;;6.57;3.53;;;15.20;99.90;;;;;;5016934;28;20049;-69
2023/10/07 09:17:23;;;;;;;11.38;3.63;;;15.30;99.90;;;;;;5017356;28;20072;-69
2023/10/07 09:19:52;;;;;;;14.45;3.95;;;15.40;99.90;;;;;;5020422;28;20029;-69
2023/10/07 09:22:24;;;;;;;11.40;3.83;;;15.50;99.90;;;;;;5020537;28;20030;-69
2023/10/07 09:24:54;;;;;;;8.02;3.97;;;15.60;99.90;;;;;;5020534;28;20018;-69
2023/10/07 09:27:36;;;;;;;5.72;3.42;;;15.60;99.90;;;;;;5019804;28;20026;-68
2023/10/07 09:30:14;;;;;;;11.68;4.70;;;15.60;99.90;;;;;;5020159;28;20075;-68
2023/10/07 09:32:42;;;;;;;9.43;4.20;;;15.60;99.90;;;;;;5019850;28;20060;-68
2023/10/07 09:35:19;;;;;;;7.32;3.33;;;15.60;99.90;;;;;;5019960;28;20026;-68
2023/10/07 09:37:45;;;;;;;13.20;3.78;;;15.60;99.90;;;;;;5020620;28;20022;-68
2023/10/07 09:41:05;;;;;;;8.05;3.80;;;15.70;99.90;;;;;;5020462;28;20030;-68
2023/10/07 09:43:13;;;;;;;8.20;4.07;;;15.70;99.90;;;;;;5020063;28;20096;-68
2023/10/07 09:45:38;;;;;;;6.65;3.25;;;15.70;99.90;;;;;;5020207;28;20056;-68
2023/10/07 09:48:05;;;;;;;8.73;3.70;;;15.80;99.90;;;;;;5019405;28;20022;-68
2023/10/07 09:50:34;;;;;;;12.48;4.45;;;15.80;99.90;;;;;;5020152;28;20018;-68
2023/10/07 09:53:24;;;;;;;7.20;3.40;;;15.90;99.90;;;;;;5019193;28;20032;-68
2023/10/07 09:56:04;;;;;;;8.13;4.38;;;16.00;99.90;;;;;;5019119;28;20037;-68
2023/10/07 09:58:47;;;;;;;6.65;4.15;;;16.10;99.90;;;;;;5019770;28;20026;-68
2023/10/07 10:01:38;;;;;;;8.18;3.65;;;16.10;99.90;;;;;;5019002;28;20029;-68
2023/10/07 10:04:11;;;;;;;7.07;3.58;;;16.10;99.90;;;;;;5019930;28;20068;-68
2023/10/07 10:07:10;;;;;;;14.13;3.00;;;16.20;99.90;;;;;;5018930;28;20026;-68
2023/10/07 10:12:27;;;;;;;14.30;4.07;;;16.20;99.90;;;;;;5020223;28;20060;-68
2023/10/07 10:17:53;;;;;;;11.02;5.78;;;16.10;99.90;;;;;;4998142;28;20104;-68
2023/10/07 10:20:27;;;;;;;15.07;5.80;;;16.20;99.90;;;;;;5015270;28;20061;-68
2023/10/07 10:23:00;;;;;;;9.85;3.45;;;16.20;99.90;;;;;;5019523;28;20022;-68
2023/10/07 10:25:36;;;;;;;8.95;3.90;;;16.20;99.90;;;;;;5018530;28;20095;-68
2023/10/07 10:28:03;;;;;;;9.20;4.63;;;16.10;99.90;;;;;;5018296;28;20032;-68
2023/10/07 10:30:32;;;;;;;8.00;3.53;;;16.20;99.90;;;;;;5018980;28;20054;-68
2023/10/07 10:33:08;;;;;;;11.23;5.10;;;16.20;99.90;;;;;;5019393;28;20022;-68
2023/10/07 10:35:40;;;;;;;11.85;4.68;;;16.20;99.90;;;;;;5019180;28;20014;-68
2023/10/07 10:38:09;;;;;;;11.50;4.55;;;16.30;99.90;;;;;;5019445;28;20026;-68
2023/10/07 10:40:36;;;;;;;11.02;5.13;;;16.30;99.90;;;;;;5018168;28;20029;-68
2023/10/07 10:43:02;;;;;;;14.70;5.32;;;16.30;99.90;;;;;;5018468;28;20037;-68
2023/10/07 10:45:30;;;;;;;9.20;3.97;;;16.40;99.90;;;;;;5019707;28;20021;-68
2023/10/07 10:48:00;;;;;;;9.13;3.33;;;16.50;99.90;;;;;;5019253;28;20026;-68
2023/10/07 10:50:29;;;;;;;5.72;2.95;;;16.50;99.90;;;;;;5019266;28;20033;-68
2023/10/07 10:52:55;;;;;;;5.70;3.38;;;16.50;99.90;;;;;;5018966;28;20030;-68
2023/10/07 10:55:24;;;;;;;11.30;4.38;;;16.60;99.90;;;;;;5017895;28;20032;-68
2023/10/07 10:57:50;;;;;;;8.80;3.47;;;16.60;99.90;;;;;;5019187;28;20060;-68
2023/10/07 11:00:21;;;;;;;11.73;3.40;;;16.60;99.90;;;;;;5018889;28;20052;-68
2023/10/07 11:02:48;;;;;;;11.47;3.87;;;16.70;99.90;;;;;;5017935;28;20053;-68
2023/10/07 11:05:15;;;;;;;6.97;3.72;;;16.80;99.90;;;;;;5018835;28;20269;-68
2023/10/07 11:07:42;;;;;;;7.18;4.07;;;17.00;99.90;;;;;;5017853;28;20165;-68
2023/10/07 11:10:10;;;;;;;9.25;3.90;;;17.40;99.90;;;;;;5019129;28;20030;-68
2023/10/07 11:12:36;;;;;;;9.27;3.90;;;17.70;99.90;;;;;;5017621;28;20030;-68
2023/10/07 11:15:12;;;;;;;11.00;3.83;;;17.90;99.90;;;;;;5018695;28;20030;-68
2023/10/07 11:17:41;;;;;;;10.27;3.65;;;18.30;99.90;;;;;;5018631;28;20046;-68
2023/10/07 11:20:12;;;;;;;9.10;4.10;;;18.80;99.90;;;;;;5017631;28;20064;-68
2023/10/07 11:22:42;;;;;;;9.15;3.63;;;19.70;99.90;;;;;;5018094;28;20099;-68
2023/10/07 11:25:14;;;;;;;8.32;4.28;;;20.20;99.90;;;;;;5018355;28;20025;-68
2023/10/07 11:27:42;;;;;;;6.90;3.08;;;20.50;99.90;;;;;;5018599;28;20018;-68
2023/10/07 11:30:11;;;;;;;8.57;3.97;;;20.90;99.90;;;;;;5018193;28;20017;-68
2023/10/07 11:32:40;;;;;;;9.48;3.83;;;21.40;99.90;;;;;;5018348;28;20026;-68
2023/10/07 11:35:29;;;;;;;5.22;3.20;;;21.80;99.90;;;;;;5018791;28;20033;-68
2023/10/07 11:37:58;;;;;;;9.48;3.80;;;21.90;99.90;;;;;;5018408;28;20040;-68
2023/10/07 11:40:25;;;;;;;10.15;2.90;;;21.90;99.90;;;;;;5017670;28;20088;-68
2023/10/07 11:42:52;;;;;;;5.82;3.30;;;21.80;99.90;;;;;;5018129;28;20098;-68
2023/10/07 11:45:22;;;;;;;6.90;3.50;;;21.80;99.90;;;;;;5018053;28;20030;-68
2023/10/07 11:47:48;;;;;;;7.10;3.83;;;21.70;99.90;;;;;;5017888;28;20014;-68
2023/10/07 11:50:16;;;;;;;4.22;2.38;;;21.50;99.90;;;;;;5018166;28;20022;-68
2023/10/07 11:52:42;;;;;;;5.82;2.90;;;21.20;99.90;;;;;;5017895;28;20049;-68
2023/10/07 11:55:09;;;;;;;5.45;2.47;;;21.20;99.90;;;;;;5016934;28;20204;-68
2023/10/07 11:57:37;;;;;;;6.75;2.63;;;21.50;99.90;;;;;;5016719;28;20026;-68
2023/10/07 12:00:10;;;;;;;7.22;2.90;;;21.90;99.90;;;;;;5017618;28;20026;-68
2023/10/07 12:02:35;;;;;;;4.75;2.40;;;22.40;99.90;;;;;;5017842;28;20025;-68
2023/10/07 12:05:05;;;;;;;6.13;2.88;;;22.90;99.90;;;;;;5017834;28;20018;-68
2023/10/07 12:07:30;;;;;;;7.05;3.53;;;23.20;99.90;;;;;;5016741;28;20049;-68
2023/10/07 12:09:56;;;;;;;7.75;2.70;;;23.30;99.90;;;;;;5017539;28;20026;-68
2023/10/07 12:12:22;;;;;;;4.82;3.20;;;23.00;99.90;;;;;;5016623;28;20045;-68
2023/10/07 12:14:48;;;;;;;6.00;2.78;;;22.40;99.90;;;;;;5017776;28;20022;-68
2023/10/07 12:17:16;;;;;;;8.00;2.63;;;21.90;99.90;;;;;;5016521;28;20033;-68
2023/10/07 12:19:42;;;;;;;5.55;2.55;;;21.40;99.90;;;;;;5016384;28;20026;-68
2023/10/07 12:22:07;;;;;;;10.25;3.67;;;21.00;99.90;;;;;;5016475;28;20164;-68
2023/10/07 12:24:33;;;;;;;6.55;2.92;;;20.90;99.90;;;;;;5016595;28;20033;-68
2023/10/07 12:27:00;;;;;;;7.10;3.38;;;20.60;99.90;;;;;;5017176;28;20052;-68
2023/10/07 12:29:27;;;;;;;10.82;2.97;;;20.50;99.90;;;;;;5016794;28;20038;-68
2023/10/07 12:31:53;;;;;;;7.72;2.75;;;20.70;99.90;;;;;;5016320;28;20038;-68
2023/10/07 12:34:19;;;;;;;4.40;2.63;;;20.70;99.90;;;;;;5017053;28;20033;-68
2023/10/07 12:36:47;;;;;;;6.07;2.45;;;20.70;99.90;;;;;;5016328;28;20028;-68
2023/10/07 12:39:14;;;;;;;4.97;2.33;;;20.80;99.90;;;;;;5017334;28;20022;-68
2023/10/07 12:41:41;;;;;;;3.63;2.40;;;20.80;99.90;;;;;;5017028;28;20022;-68
2023/10/07 12:44:08;;;;;;;6.90;3.67;;;20.70;99.90;;;;;;5016303;28;20113;-68
2023/10/07 12:46:37;;;;;;;5.60;2.65;;;20.70;99.90;;;;;;5017070;28;20049;-68
2023/10/07 12:49:10;;;;;;;7.78;3.50;;;20.80;99.90;;;;;;5017372;28;20076;-68
2023/10/07 12:51:41;;;;;;;5.47;2.45;;;20.80;99.90;;;;;;5016322;28;20080;-68
2023/10/07 12:54:10;;;;;;;3.95;2.20;;;20.60;99.90;;;;;;5019819;28;20053;-68
2023/10/07 12:56:42;;;;;;;6.07;2.78;;;20.50;99.90;;;;;;5021021;28;20030;-66
2023/10/07 12:59:18;;;;;;;6.78;2.45;;;20.50;99.90;;;;;;5020840;28;20054;-66
2023/10/07 13:01:51;;;;;;;7.75;2.70;;;20.40;99.90;;;;;;5021093;28;20035;-66
2023/10/07 13:04:25;;;;;;;4.97;2.33;;;20.30;99.90;;;;;;5021014;28;20018;-66
2023/10/07 13:07:10;;;;;;;4.13;2.20;;;20.40;99.90;;;;;;5021007;28;20044;-66
2023/10/07 13:09:40;;;;;;;7.90;3.08;;;20.30;99.90;;;;;;5020731;28;20022;-66
2023/10/07 13:12:11;;;;;;;4.75;2.15;;;20.30;99.90;;;;;;5020326;28;20026;-66
2023/10/07 13:14:40;;;;;;;9.23;2.30;;;20.40;99.90;;;;;;5020952;28;20116;-66
2023/10/07 13:17:07;;;;;;;7.55;2.95;;;20.40;99.90;;;;;;5021038;28;20022;-66
2023/10/07 13:19:36;;;;;;;7.60;3.90;;;20.40;99.90;;;;;;5020498;28;20076;-66
2023/10/07 13:22:05;;;;;;;5.88;2.80;;;20.50;99.90;;;;;;5020583;28;20072;-66
2023/10/07 13:24:34;;;;;;;7.10;2.67;;;20.60;99.90;;;;;;5020502;28;20022;-66